Time;durP1;ratioP1;P1;durP2;ratioP2;P2;SDS_P1;SDS_P2;PMS_P1;PMS_P2;Temp;Humidity;BMP_temperature;BMP_pressure;BME280_temperature;BME280_humidity;BME280_pressure;Samples;Min_cycle;Max_cycle;Signal;HPM_P1;HPM_P2
2022/03/29 00:00:41;;;;;;;18.70;10.13;;;10.10;84.10;;;;;;5004960;28;20552;-64
2022/03/29 00:03:07;;;;;;;14.98;9.75;;;10.10;84.00;;;;;;4993079;28;20393;-63
2022/03/29 00:05:36;;;;;;;15.18;9.88;;;10.10;84.00;;;;;;4993080;28;20026;-64
2022/03/29 00:08:02;;;;;;;17.88;10.35;;;10.10;84.10;;;;;;5002944;28;20053;-64
2022/03/29 00:10:28;;;;;;;18.73;10.00;;;10.00;84.10;;;;;;4993265;28;20053;-64
2022/03/29 00:12:54;;;;;;;15.63;10.43;;;10.10;84.30;;;;;;5010288;28;20026;-64
2022/03/29 00:15:21;;;;;;;19.30;10.85;;;10.10;84.40;;;;;;5012425;28;20599;-64
2022/03/29 00:17:47;;;;;;;16.10;9.90;;;10.00;84.60;;;;;;5008837;28;20022;-64
2022/03/29 00:20:14;;;;;;;16.98;10.48;;;10.00;84.60;;;;;;5011668;28;20036;-64
2022/03/29 00:22:39;;;;;;;16.20;10.95;;;10.10;84.70;;;;;;5009675;28;20504;-65
2022/03/29 00:25:06;;;;;;;14.20;9.88;;;10.10;84.70;;;;;;5012075;28;20037;-64
2022/03/29 00:27:31;;;;;;;17.63;11.00;;;10.00;84.90;;;;;;5008292;28;20030;-64
2022/03/29 00:29:57;;;;;;;15.63;10.43;;;10.00;84.90;;;;;;5011413;28;20022;-64
2022/03/29 00:32:22;;;;;;;17.88;11.18;;;10.00;85.00;;;;;;5010363;28;20049;-64
2022/03/29 00:34:47;;;;;;;16.88;11.35;;;10.00;85.10;;;;;;4998270;28;20050;-64
2022/03/29 00:37:13;;;;;;;16.15;9.90;;;10.10;85.20;;;;;;5005677;28;20034;-64
2022/03/29 00:39:39;;;;;;;16.48;10.60;;;10.00;85.20;;;;;;4999626;28;20026;-64
2022/03/29 00:42:04;;;;;;;17.00;11.07;;;10.00;85.30;;;;;;4999723;28;20030;-64
2022/03/29 00:44:33;;;;;;;17.73;11.20;;;10.00;85.70;;;;;;4991076;28;20074;-63
2022/03/29 00:46:59;;;;;;;16.33;10.73;;;10.00;85.60;;;;;;5001435;28;20030;-63
2022/03/29 00:49:25;;;;;;;16.98;10.75;;;10.00;85.70;;;;;;5002017;28;20037;-63
2022/03/29 00:51:55;;;;;;;18.85;9.85;;;10.00;85.80;;;;;;5007927;28;20034;-64
2022/03/29 00:54:21;;;;;;;16.88;11.05;;;10.00;85.80;;;;;;5011960;28;20113;-64
2022/03/29 00:56:46;;;;;;;17.80;10.10;;;10.00;85.70;;;;;;4999935;28;20027;-64
2022/03/29 00:59:12;;;;;;;16.10;10.65;;;10.10;85.70;;;;;;5006617;28;20488;-64
2022/03/29 01:01:38;;;;;;;16.73;10.07;;;10.10;85.80;;;;;;5009741;28;20044;-64
2022/03/29 01:04:04;;;;;;;19.10;10.93;;;10.10;85.90;;;;;;5011080;28;20543;-64
2022/03/29 01:06:29;;;;;;;19.48;10.45;;;10.00;86.10;;;;;;4993391;28;20042;-64
2022/03/29 01:08:55;;;;;;;15.65;10.30;;;10.00;86.20;;;;;;5002388;28;20038;-65
2022/03/29 01:11:21;;;;;;;18.33;11.40;;;10.00;86.30;;;;;;5009195;28;20061;-64
2022/03/29 01:13:47;;;;;;;16.30;9.75;;;10.00;86.40;;;;;;5010795;28;20152;-64
2022/03/29 01:18:58;;;;;;;18.00;10.93;;;10.00;86.70;;;;;;4995673;28;20398;-64
2022/03/29 01:21:29;;;;;;;17.52;11.43;;;10.00;86.80;;;;;;4992566;28;20652;-63
2022/03/29 01:23:55;;;;;;;18.05;10.27;;;10.00;86.60;;;;;;4998512;28;20056;-64
2022/03/29 01:26:21;;;;;;;15.93;9.95;;;10.00;86.60;;;;;;5009238;28;20536;-63
2022/03/29 01:28:46;;;;;;;17.83;10.02;;;10.00;86.90;;;;;;4998425;28;20404;-63
2022/03/29 01:31:13;;;;;;;16.20;10.95;;;10.10;86.80;;;;;;5007052;28;20026;-64
2022/03/29 01:33:42;;;;;;;16.15;10.57;;;10.10;86.90;;;;;;5005014;28;20030;-63
2022/03/29 01:36:08;;;;;;;14.27;10.18;;;10.10;86.90;;;;;;5009878;28;20018;-63
2022/03/29 01:38:33;;;;;;;16.42;10.90;;;10.10;86.80;;;;;;5010433;28;20026;-63
2022/03/29 01:41:03;;;;;;;19.08;11.38;;;10.10;86.80;;;;;;5006235;28;20034;-63
2022/03/29 01:43:29;;;;;;;20.33;10.95;;;10.10;86.80;;;;;;5010400;28;20037;-64
2022/03/29 01:45:54;;;;;;;19.65;11.23;;;10.20;86.80;;;;;;5008742;28;20092;-64
2022/03/29 01:48:20;;;;;;;24.67;11.80;;;10.20;86.70;;;;;;5010834;28;20025;-64
2022/03/29 01:50:48;;;;;;;17.08;10.68;;;10.10;86.70;;;;;;5006631;28;20019;-63
2022/03/29 01:53:27;;;;;;;15.75;11.20;;;10.10;86.70;;;;;;5003776;28;20029;-64
2022/03/29 01:55:55;;;;;;;16.98;11.30;;;10.10;86.90;;;;;;5006087;28;20037;-63
2022/03/29 01:58:23;;;;;;;17.08;10.73;;;10.00;87.00;;;;;;5006998;28;20034;-63
2022/03/29 02:00:48;;;;;;;17.33;10.00;;;9.90;87.30;;;;;;4998703;28;20794;-63
2022/03/29 02:03:14;;;;;;;17.60;10.93;;;9.90;87.50;;;;;;4992635;28;20034;-64
2022/03/29 02:05:39;;;;;;;17.67;11.85;;;9.90;87.40;;;;;;5009429;28;20164;-64
2022/03/29 02:08:05;;;;;;;17.45;11.48;;;10.00;87.40;;;;;;5011484;28;20046;-64
2022/03/29 02:10:30;;;;;;;18.88;11.85;;;9.90;87.40;;;;;;5002084;28;20121;-64
2022/03/29 02:12:56;;;;;;;18.00;11.90;;;9.90;87.40;;;;;;5014233;28;20464;-63
2022/03/29 02:15:22;;;;;;;21.27;12.77;;;9.70;87.80;;;;;;5013751;28;20030;-63
2022/03/29 02:17:51;;;;;;;18.92;11.75;;;9.70;87.90;;;;;;4995649;28;20035;-64
2022/03/29 02:20:17;;;;;;;20.80;12.10;;;9.70;88.60;;;;;;4999453;28;20378;-63
2022/03/29 02:22:43;;;;;;;18.83;11.88;;;9.70;88.40;;;;;;5000386;28;20042;-63
2022/03/29 02:25:12;;;;;;;21.38;12.20;;;9.60;88.40;;;;;;4997840;28;20037;-64
2022/03/29 02:27:41;;;;;;;20.52;12.23;;;9.60;88.50;;;;;;4995265;28;20031;-63
2022/03/29 02:30:07;;;;;;;20.25;12.48;;;9.60;88.80;;;;;;4997437;28;20037;-64
2022/03/29 02:32:33;;;;;;;17.92;11.80;;;9.50;88.90;;;;;;4999637;28;20030;-64
2022/03/29 02:34:58;;;;;;;18.27;11.02;;;9.60;88.80;;;;;;4996984;28;20084;-64
2022/03/29 02:37:24;;;;;;;17.90;12.82;;;9.70;89.10;;;;;;5002191;28;20072;-64
2022/03/29 02:39:49;;;;;;;19.42;12.57;;;9.70;89.00;;;;;;4999657;28;20047;-64
2022/03/29 02:42:15;;;;;;;18.30;11.98;;;9.70;88.90;;;;;;5012406;28;20037;-64
2022/03/29 02:44:40;;;;;;;25.50;13.20;;;9.70;88.70;;;;;;5010222;28;20337;-64
2022/03/29 02:47:06;;;;;;;18.75;12.15;;;9.70;88.90;;;;;;5011914;28;20113;-64
2022/03/29 02:49:32;;;;;;;20.20;12.13;;;9.70;88.60;;;;;;5014182;28;20036;-64
2022/03/29 02:51:57;;;;;;;19.75;12.20;;;9.70;88.70;;;;;;5011886;28;20026;-64
2022/03/29 02:54:23;;;;;;;22.77;13.38;;;9.70;88.70;;;;;;5002798;28;20014;-64
2022/03/29 02:56:48;;;;;;;21.50;12.85;;;9.80;88.60;;;;;;5001950;28;20038;-65
2022/03/29 02:59:14;;;;;;;20.13;12.75;;;9.80;88.50;;;;;;4997304;28;20053;-64
2022/03/29 03:01:40;;;;;;;21.13;12.27;;;9.80;88.40;;;;;;5009219;28;20444;-63
2022/03/29 03:04:06;;;;;;;16.75;11.63;;;9.90;88.40;;;;;;4996589;28;20425;-63
2022/03/29 03:06:31;;;;;;;22.50;12.20;;;9.90;88.30;;;;;;5005209;28;20038;-64
2022/03/29 03:08:57;;;;;;;19.55;12.85;;;9.90;88.30;;;;;;4999824;28;20084;-64
2022/03/29 03:11:22;;;;;;;19.35;12.18;;;10.00;88.20;;;;;;5000732;28;20362;-64
2022/03/29 03:13:48;;;;;;;21.20;12.98;;;10.00;88.20;;;;;;5013925;28;20117;-64
2022/03/29 03:16:13;;;;;;;21.98;13.00;;;10.00;88.30;;;;;;5002889;28;20504;-64
2022/03/29 03:18:39;;;;;;;21.10;13.15;;;10.00;88.20;;;;;;4994120;28;20033;-64
2022/03/29 03:21:04;;;;;;;22.30;13.95;;;10.00;88.20;;;;;;4996793;28;20041;-64
2022/03/29 03:23:30;;;;;;;20.90;12.10;;;9.90;88.50;;;;;;5012682;28;20057;-65
2022/03/29 03:25:55;;;;;;;23.27;13.68;;;9.90;88.60;;;;;;5011081;28;20017;-65
2022/03/29 03:28:21;;;;;;;22.60;13.32;;;9.80;88.70;;;;;;5010632;28;20026;-64
2022/03/29 03:30:46;;;;;;;19.77;12.77;;;9.80;88.80;;;;;;5000009;28;20022;-64
2022/03/29 03:33:12;;;;;;;21.15;13.70;;;9.70;88.90;;;;;;5011847;28;20086;-64
2022/03/29 03:35:38;;;;;;;20.38;13.35;;;9.80;89.00;;;;;;5012043;28;20022;-64
2022/03/29 03:38:04;;;;;;;20.23;12.73;;;9.80;89.00;;;;;;5012801;28;20030;-64
2022/03/29 03:40:30;;;;;;;18.90;12.90;;;9.80;89.30;;;;;;5012478;28;20072;-66
2022/03/29 03:42:55;;;;;;;22.27;13.55;;;9.80;89.20;;;;;;4996348;28;20037;-65
2022/03/29 03:45:22;;;;;;;21.83;13.52;;;9.70;89.60;;;;;;5022537;28;20057;-64
2022/03/29 03:47:48;;;;;;;22.35;13.80;;;9.60;89.60;;;;;;5012863;28;20033;-64
2022/03/29 03:50:14;;;;;;;20.15;13.13;;;9.60;89.60;;;;;;4999866;28;20028;-64
2022/03/29 03:52:39;;;;;;;21.13;14.07;;;9.60;89.60;;;;;;5009109;28;20508;-63
2022/03/29 03:55:05;;;;;;;21.08;12.77;;;9.60;89.80;;;;;;5001425;28;20089;-64
2022/03/29 03:57:31;;;;;;;21.40;13.68;;;9.60;89.90;;;;;;5008492;28;20026;-63
2022/03/29 03:59:56;;;;;;;19.50;13.25;;;9.60;89.90;;;;;;5012216;28;20048;-64
2022/03/29 04:02:23;;;;;;;24.50;13.73;;;9.60;90.00;;;;;;5010805;28;20033;-64
2022/03/29 04:04:48;;;;;;;24.67;14.80;;;9.60;90.00;;;;;;5003019;28;20470;-64
2022/03/29 04:07:14;;;;;;;23.95;14.27;;;9.50;90.00;;;;;;4998195;28;20043;-63
2022/03/29 04:09:40;;;;;;;23.98;14.05;;;9.50;90.00;;;;;;5007873;28;20032;-64
2022/03/29 04:12:06;;;;;;;21.27;14.48;;;9.60;90.10;;;;;;5011251;28;20048;-63
2022/03/29 04:14:32;;;;;;;20.80;13.32;;;9.50;90.00;;;;;;5001207;28;20089;-64
2022/03/29 04:16:57;;;;;;;20.88;13.50;;;9.60;90.00;;;;;;5003597;28;20022;-64
2022/03/29 04:19:23;;;;;;;24.17;14.63;;;9.60;90.00;;;;;;5009957;28;20033;-64
2022/03/29 04:21:48;;;;;;;22.15;14.23;;;9.60;90.00;;;;;;5002132;28;20037;-64
2022/03/29 04:24:14;;;;;;;26.80;13.88;;;9.60;90.00;;;;;;5005270;28;20037;-64
2022/03/29 04:26:39;;;;;;;22.90;13.60;;;9.60;89.90;;;;;;5011201;28;20069;-65
2022/03/29 04:29:05;;;;;;;22.50;14.30;;;9.60;89.90;;;;;;5006855;28;20048;-65
2022/03/29 04:31:31;;;;;;;21.63;14.27;;;9.60;89.90;;;;;;4999647;28;20030;-64
2022/03/29 04:33:58;;;;;;;22.40;12.68;;;9.60;90.00;;;;;;5011287;28;20025;-64
2022/03/29 04:36:24;;;;;;;24.88;14.63;;;9.50;89.90;;;;;;5008330;28;20038;-64
2022/03/29 04:38:50;;;;;;;23.60;14.25;;;9.60;89.90;;;;;;4995106;28;20034;-64
2022/03/29 04:41:16;;;;;;;23.83;15.00;;;9.60;89.80;;;;;;5010103;28;20029;-64
2022/03/29 04:43:41;;;;;;;20.92;13.30;;;9.60;89.80;;;;;;5008027;28;20497;-64
2022/03/29 04:46:07;;;;;;;24.50;13.95;;;9.60;89.60;;;;;;5009260;28;20091;-65
2022/03/29 04:48:32;;;;;;;24.42;12.93;;;9.60;89.30;;;;;;5012214;28;20069;-64
2022/03/29 04:50:58;;;;;;;24.35;15.30;;;9.60;89.10;;;;;;5009250;28;20022;-64
2022/03/29 04:53:23;;;;;;;28.27;16.30;;;9.50;89.00;;;;;;5011344;28;20037;-64
2022/03/29 04:55:50;;;;;;;22.20;12.55;;;9.50;89.10;;;;;;5007029;28;20026;-64
2022/03/29 04:58:16;;;;;;;23.52;14.38;;;9.50;89.00;;;;;;5010563;28;20092;-64
2022/03/29 05:00:42;;;;;;;24.95;14.77;;;9.50;89.00;;;;;;4997158;28;20465;-64
2022/03/29 05:03:08;;;;;;;24.00;15.15;;;9.40;89.00;;;;;;5010685;28;20109;-64
2022/03/29 05:05:33;;;;;;;25.35;14.90;;;9.40;89.10;;;;;;5009695;28;20163;-65
2022/03/29 05:07:59;;;;;;;27.05;15.32;;;9.30;89.10;;;;;;5001719;28;20041;-64
2022/03/29 05:10:24;;;;;;;20.25;14.20;;;9.30;89.10;;;;;;5011862;28;20044;-64
2022/03/29 05:12:55;;;;;;;22.33;14.27;;;9.30;89.40;;;;;;5008344;28;20037;-64
2022/03/29 05:15:21;;;;;;;25.52;16.08;;;9.40;89.30;;;;;;4996785;28;20026;-64
2022/03/29 05:17:46;;;;;;;24.58;14.60;;;9.40;89.30;;;;;;5006882;28;20091;-64
2022/03/29 05:20:14;;;;;;;24.95;15.48;;;9.30;89.40;;;;;;5011733;28;20635;-64
2022/03/29 05:22:51;;;;;;;29.52;15.75;;;9.30;89.50;;;;;;5000116;28;20030;-63
2022/03/29 05:25:18;;;;;;;26.58;15.65;;;9.20;89.70;;;;;;5011512;28;20034;-63
2022/03/29 05:27:45;;;;;;;26.55;14.95;;;9.10;90.00;;;;;;4994634;28;20023;-64
2022/03/29 05:30:12;;;;;;;27.33;14.73;;;9.10;90.00;;;;;;5000840;28;20448;-64
2022/03/29 05:32:38;;;;;;;28.23;15.35;;;9.10;90.20;;;;;;5002251;28;20033;-63
2022/03/29 05:35:07;;;;;;;21.00;14.10;;;9.00;90.20;;;;;;5011596;28;20388;-63
2022/03/29 05:37:32;;;;;;;24.20;14.93;;;9.10;90.10;;;;;;5008762;28;20469;-63
2022/03/29 05:39:58;;;;;;;23.67;14.02;;;9.10;90.10;;;;;;5009542;28;20026;-63
2022/03/29 05:42:23;;;;;;;26.05;15.23;;;9.20;90.00;;;;;;4996196;28;20084;-63
2022/03/29 05:44:49;;;;;;;21.77;13.98;;;9.30;90.00;;;;;;4996411;28;20125;-64
2022/03/29 05:49:58;;;;;;;22.92;14.38;;;9.30;89.70;;;;;;5004748;28;20053;-65
2022/03/29 05:52:24;;;;;;;25.77;14.40;;;9.30;89.80;;;;;;4998340;28;20057;-64
2022/03/29 05:54:50;;;;;;;22.95;15.27;;;9.30;90.00;;;;;;5007048;28;20018;-64
2022/03/29 05:57:17;;;;;;;26.67;15.50;;;9.20;90.10;;;;;;5008128;28;20030;-64
2022/03/29 05:59:44;;;;;;;25.05;15.18;;;9.30;90.10;;;;;;5015108;28;20065;-64
2022/03/29 06:02:10;;;;;;;31.42;16.95;;;9.30;90.00;;;;;;5003942;28;20036;-63
2022/03/29 06:04:36;;;;;;;26.73;16.40;;;9.30;90.00;;;;;;5001149;28;20113;-64
2022/03/29 06:07:04;;;;;;;25.60;15.27;;;9.30;89.80;;;;;;4996933;28;20138;-64
2022/03/29 06:09:33;;;;;;;29.45;16.08;;;9.30;89.80;;;;;;5003691;28;20050;-64
2022/03/29 06:11:58;;;;;;;29.13;16.50;;;9.40;89.70;;;;;;5006924;28;20058;-64
2022/03/29 06:14:24;;;;;;;31.90;16.92;;;9.50;89.70;;;;;;5012453;28;20057;-64
2022/03/29 06:16:50;;;;;;;33.00;16.83;;;9.40;89.50;;;;;;5011836;28;20048;-64
2022/03/29 06:19:16;;;;;;;28.05;15.88;;;9.40;89.40;;;;;;4994606;28;20026;-62
2022/03/29 06:21:42;;;;;;;29.02;15.82;;;9.30;89.50;;;;;;5004008;28;20481;-63
2022/03/29 06:24:10;;;;;;;30.60;16.27;;;9.30;89.70;;;;;;5009118;28;20029;-63
2022/03/29 06:26:39;;;;;;;30.60;15.32;;;9.40;89.80;;;;;;5003193;28;20386;-64
2022/03/29 06:29:09;;;;;;;30.35;16.10;;;9.40;90.00;;;;;;4995260;28;20057;-63
2022/03/29 06:31:35;;;;;;;25.55;15.48;;;9.40;89.70;;;;;;5015519;28;20258;-63
2022/03/29 06:34:01;;;;;;;27.55;14.85;;;9.50;89.60;;;;;;5009853;28;20510;-64
2022/03/29 06:36:27;;;;;;;32.05;16.83;;;9.50;89.30;;;;;;4998037;28;20034;-63
2022/03/29 06:38:53;;;;;;;29.63;17.77;;;9.60;89.20;;;;;;4999153;28;20053;-63
2022/03/29 06:41:19;;;;;;;28.55;15.23;;;9.60;88.80;;;;;;5003239;28;20033;-64
2022/03/29 06:43:45;;;;;;;28.25;16.13;;;9.70;88.80;;;;;;5013675;28;20111;-63
2022/03/29 06:46:10;;;;;;;30.35;15.93;;;9.70;88.70;;;;;;4999556;28;20426;-63
2022/03/29 06:48:37;;;;;;;28.25;15.65;;;9.70;88.60;;;;;;5003475;28;20034;-63
2022/03/29 06:51:02;;;;;;;30.70;15.18;;;9.90;88.40;;;;;;5002572;28;20034;-63
2022/03/29 06:53:28;;;;;;;29.83;16.15;;;9.90;88.10;;;;;;5012686;28;20030;-63
2022/03/29 06:55:54;;;;;;;29.10;15.82;;;10.00;88.20;;;;;;4997106;28;20029;-63
2022/03/29 06:58:20;;;;;;;27.35;14.35;;;10.00;87.70;;;;;;5008881;28;20054;-63
2022/03/29 07:00:46;;;;;;;25.38;14.80;;;10.10;87.40;;;;;;5005426;28;20044;-63
2022/03/29 07:03:11;;;;;;;26.27;14.30;;;10.20;86.80;;;;;;4999048;28;20034;-64
2022/03/29 07:05:40;;;;;;;27.00;15.25;;;10.30;86.50;;;;;;5003081;28;20026;-63
2022/03/29 07:08:06;;;;;;;31.30;15.18;;;10.30;85.90;;;;;;4998752;28;20072;-63
2022/03/29 07:13:16;;;;;;;28.63;14.23;;;10.40;85.30;;;;;;4994429;28;20500;-63
2022/03/29 07:15:42;;;;;;;26.75;15.00;;;10.40;84.60;;;;;;4997877;28;20035;-63
2022/03/29 07:18:08;;;;;;;28.05;14.88;;;10.40;83.60;;;;;;4997106;28;20077;-63
2022/03/29 07:20:33;;;;;;;27.17;14.40;;;10.40;83.30;;;;;;4994691;28;20516;-63
2022/03/29 07:22:59;;;;;;;25.45;13.07;;;10.50;82.80;;;;;;5002608;28;20057;-63
2022/03/29 07:25:27;;;;;;;21.35;12.65;;;10.50;82.60;;;;;;5000535;28;20030;-62
2022/03/29 07:27:53;;;;;;;23.65;13.07;;;10.60;82.50;;;;;;5007827;28;20096;-62
2022/03/29 07:30:20;;;;;;;31.17;14.10;;;10.60;81.50;;;;;;5004793;28;20110;-62
2022/03/29 07:32:50;;;;;;;25.77;13.93;;;10.60;82.10;;;;;;4999977;28;20033;-62
2022/03/29 07:35:20;;;;;;;23.67;12.43;;;10.60;80.40;;;;;;4995454;28;20493;-63
2022/03/29 07:37:46;;;;;;;23.10;12.10;;;10.70;80.00;;;;;;5007533;28;20119;-64
2022/03/29 07:40:13;;;;;;;19.80;10.60;;;10.70;79.90;;;;;;5001672;28;20401;-64
2022/03/29 07:42:39;;;;;;;22.80;12.30;;;10.90;79.80;;;;;;4998491;28;20038;-63
2022/03/29 07:45:06;;;;;;;19.88;11.75;;;10.90;79.60;;;;;;5006439;28;20044;-63
2022/03/29 07:47:34;;;;;;;19.58;11.60;;;11.00;79.20;;;;;;4997360;28;20034;-64
2022/03/29 07:50:01;;;;;;;20.15;11.15;;;10.90;77.50;;;;;;5007365;28;20025;-63
2022/03/29 07:52:27;;;;;;;19.63;11.98;;;10.90;77.80;;;;;;5005966;28;20033;-64
2022/03/29 07:54:53;;;;;;;22.70;11.77;;;10.90;76.90;;;;;;5006382;28;20540;-64
2022/03/29 07:57:19;;;;;;;17.10;11.52;;;10.80;77.80;;;;;;5001157;28;21652;-63
2022/03/29 07:59:44;;;;;;;22.05;11.70;;;10.90;77.90;;;;;;5009599;28;20485;-63
2022/03/29 08:02:10;;;;;;;20.55;11.80;;;11.00;77.30;;;;;;5005368;28;20041;-63
2022/03/29 08:04:35;;;;;;;19.15;11.48;;;10.90;77.30;;;;;;4998994;28;20417;-63
2022/03/29 08:07:01;;;;;;;24.05;12.13;;;11.00;77.20;;;;;;5007094;28;20041;-63
2022/03/29 08:09:29;;;;;;;18.67;11.50;;;11.00;77.30;;;;;;5010067;28;20441;-63
2022/03/29 08:11:55;;;;;;;23.13;12.10;;;11.20;77.00;;;;;;5010255;28;20034;-64
2022/03/29 08:14:22;;;;;;;18.48;11.95;;;11.20;76.90;;;;;;4999714;28;20037;-63
2022/03/29 08:16:48;;;;;;;19.60;10.93;;;11.20;76.20;;;;;;5009495;28;20052;-64
2022/03/29 08:19:14;;;;;;;23.52;12.02;;;11.20;76.40;;;;;;5001339;28;20049;-63
2022/03/29 08:21:49;;;;;;;21.80;11.93;;;11.20;75.40;;;;;;5006441;28;20042;-63
2022/03/29 08:24:25;;;;;;;18.48;11.85;;;11.20;75.40;;;;;;5009275;28;20044;-63
2022/03/29 08:26:53;;;;;;;21.00;10.75;;;11.20;75.30;;;;;;5004617;28;20121;-64
2022/03/29 08:29:21;;;;;;;19.25;10.75;;;11.20;75.60;;;;;;5006537;28;20037;-64
2022/03/29 08:31:49;;;;;;;17.88;10.55;;;11.30;75.80;;;;;;5009928;28;20105;-63
2022/03/29 08:34:16;;;;;;;18.27;10.65;;;11.30;75.50;;;;;;5002693;28;20042;-64
2022/03/29 08:36:42;;;;;;;22.55;11.50;;;11.40;75.10;;;;;;5003459;28;20022;-63
2022/03/29 08:39:08;;;;;;;16.90;10.55;;;11.40;74.40;;;;;;5000177;28;20032;-64
2022/03/29 08:41:46;;;;;;;24.75;11.95;;;11.40;74.60;;;;;;5007305;28;20041;-64
2022/03/29 08:44:12;;;;;;;17.67;11.32;;;11.40;74.40;;;;;;5005350;28;20026;-64
2022/03/29 08:46:41;;;;;;;18.55;10.48;;;11.40;74.30;;;;;;5004745;28;20080;-64
2022/03/29 08:49:07;;;;;;;21.92;10.95;;;11.40;73.50;;;;;;5009126;28;20026;-63
2022/03/29 08:51:34;;;;;;;16.70;9.82;;;11.40;73.60;;;;;;5003150;28;20420;-62
2022/03/29 08:54:00;;;;;;;23.58;9.48;;;11.40;73.50;;;;;;4991695;28;20034;-62
2022/03/29 08:56:26;;;;;;;19.38;9.77;;;11.40;73.40;;;;;;4998374;28;20023;-62
2022/03/29 08:58:51;;;;;;;19.95;9.98;;;11.30;72.70;;;;;;4998793;28;20026;-62
2022/03/29 09:01:21;;;;;;;17.23;10.63;;;11.30;73.10;;;;;;5006582;28;20034;-63
2022/03/29 09:04:12;;;;;;;20.90;9.98;;;11.30;72.70;;;;;;5004799;28;20042;-62
2022/03/29 09:06:56;;;;;;;17.95;9.65;;;11.30;72.50;;;;;;5006711;28;20058;-62
2022/03/29 09:09:25;;;;;;;17.38;9.88;;;11.40;72.10;;;;;;5004498;28;20057;-63
2022/03/29 09:11:53;;;;;;;19.00;10.38;;;11.50;72.00;;;;;;4997806;28;20022;-62
2022/03/29 09:14:19;;;;;;;19.00;10.38;;;11.50;72.00;;;;;;5008354;28;20029;-62
2022/03/29 09:16:44;;;;;;;22.50;11.63;;;11.50;71.70;;;;;;5002411;28;20552;-63
2022/03/29 09:19:11;;;;;;;18.08;9.48;;;11.40;70.70;;;;;;5008381;28;20113;-62
2022/03/29 09:21:41;;;;;;;21.45;12.30;;;11.40;70.10;;;;;;5006908;28;20046;-62
2022/03/29 09:24:09;;;;;;;17.00;10.48;;;11.40;70.70;;;;;;5018756;28;20025;-62
2022/03/29 09:26:39;;;;;;;18.88;10.63;;;11.40;71.00;;;;;;5009091;28;20084;-63
2022/03/29 09:29:12;;;;;;;20.13;10.65;;;11.50;70.80;;;;;;4991976;28;20026;-63
2022/03/29 09:31:39;;;;;;;16.85;11.20;;;11.50;70.60;;;;;;4995497;28;20022;-63
2022/03/29 09:34:16;;;;;;;19.70;10.95;;;11.50;70.90;;;;;;5006110;28;20033;-63
2022/03/29 09:36:50;;;;;;;19.70;11.18;;;11.60;71.10;;;;;;5006615;28;20563;-63
2022/03/29 09:39:42;;;;;;;22.92;11.35;;;11.70;70.70;;;;;;4990751;28;20054;-63
2022/03/29 09:42:11;;;;;;;22.08;12.73;;;11.80;70.80;;;;;;5006268;28;20046;-63
2022/03/29 09:44:44;;;;;;;17.08;11.13;;;11.90;70.70;;;;;;5009084;28;20118;-62
2022/03/29 09:47:12;;;;;;;22.05;11.80;;;11.90;70.30;;;;;;5008486;28;20037;-62
2022/03/29 09:49:56;;;;;;;19.95;11.55;;;12.00;70.00;;;;;;5008489;28;20034;-62
2022/03/29 09:52:31;;;;;;;18.00;11.25;;;12.00;69.50;;;;;;5002795;28;20039;-62
2022/03/29 09:55:03;;;;;;;15.80;10.90;;;12.00;69.30;;;;;;4995212;28;20022;-63
2022/03/29 09:57:45;;;;;;;19.05;11.07;;;12.10;69.40;;;;;;5002275;28;20041;-62
2022/03/29 10:00:15;;;;;;;23.05;12.27;;;12.20;68.70;;;;;;5001147;28;20065;-62
2022/03/29 10:02:42;;;;;;;17.30;11.38;;;12.20;67.80;;;;;;5008089;28;20079;-62
2022/03/29 10:05:10;;;;;;;19.25;12.50;;;12.30;68.50;;;;;;5009267;28;20026;-62
2022/03/29 10:07:41;;;;;;;19.23;11.25;;;12.30;68.00;;;;;;5000383;28;20054;-62
2022/03/29 10:10:07;;;;;;;18.80;11.23;;;12.40;67.60;;;;;;4995714;28;20038;-62
2022/03/29 10:12:34;;;;;;;20.17;11.30;;;12.40;67.20;;;;;;5007424;28;20026;-63
2022/03/29 10:15:01;;;;;;;22.42;11.57;;;12.50;67.00;;;;;;5003563;28;20306;-62
2022/03/29 10:17:27;;;;;;;22.00;11.40;;;12.50;66.40;;;;;;5004690;28;20022;-62
2022/03/29 10:19:54;;;;;;;18.83;9.52;;;12.50;66.40;;;;;;5007901;28;20044;-62
2022/03/29 10:22:19;;;;;;;21.20;10.73;;;12.50;65.00;;;;;;4999353;28;20096;-63
2022/03/29 10:24:45;;;;;;;18.05;10.82;;;12.50;64.10;;;;;;5008894;28;20500;-63
2022/03/29 10:27:11;;;;;;;15.02;9.52;;;12.50;64.80;;;;;;5007732;28;20033;-63
2022/03/29 10:29:40;;;;;;;15.48;9.45;;;12.40;65.10;;;;;;5007659;28;20026;-63
2022/03/29 10:32:06;;;;;;;16.92;9.73;;;12.50;65.10;;;;;;5009629;28;20041;-62
2022/03/29 10:34:42;;;;;;;16.20;10.32;;;12.50;65.10;;;;;;5021138;28;20033;-62
2022/03/29 10:37:17;;;;;;;13.73;9.45;;;12.60;64.60;;;;;;5008335;28;20056;-63
2022/03/29 10:39:46;;;;;;;17.58;10.45;;;12.60;64.80;;;;;;5008913;28;20026;-62
2022/03/29 10:42:42;;;;;;;14.60;9.52;;;12.60;63.50;;;;;;5010448;28;20049;-63
2022/03/29 10:45:29;;;;;;;15.27;9.30;;;12.60;62.60;;;;;;5010839;28;20137;-63
2022/03/29 10:48:00;;;;;;;19.23;10.30;;;12.70;63.10;;;;;;5003189;28;20129;-63
2022/03/29 10:50:51;;;;;;;14.57;9.32;;;12.70;62.60;;;;;;5008778;28;20026;-63
2022/03/29 10:53:26;;;;;;;18.23;10.07;;;12.80;62.70;;;;;;5008735;28;20037;-63
2022/03/29 10:56:11;;;;;;;15.38;10.10;;;12.80;63.60;;;;;;5011374;28;20437;-63
2022/03/29 10:58:55;;;;;;;;;;;12.80;63.40;;;;;;5008316;28;20109;-62
2022/03/29 11:01:22;;;;;;;17.52;11.60;;;12.90;64.00;;;;;;5011040;28;19925;-63
2022/03/29 11:04:01;;;;;;;18.98;10.30;;;13.00;63.60;;;;;;4998976;28;20028;-62
2022/03/29 11:06:27;;;;;;;14.02;9.38;;;13.10;63.30;;;;;;5008745;28;20193;-62
2022/03/29 11:09:07;;;;;;;17.58;10.10;;;13.10;63.80;;;;;;5004175;28;20044;-63
2022/03/29 11:11:40;;;;;;;16.58;10.07;;;13.10;61.50;;;;;;5007785;28;20033;-62
2022/03/29 11:14:32;;;;;;;15.38;9.07;;;13.10;62.40;;;;;;5007014;28;20041;-63
2022/03/29 11:17:09;;;;;;;15.32;9.48;;;13.20;61.80;;;;;;5006853;28;20030;-63
2022/03/29 11:19:47;;;;;;;14.95;8.77;;;13.30;61.50;;;;;;5008642;28;20044;-63
2022/03/29 11:22:43;;;;;;;13.55;9.32;;;13.40;61.40;;;;;;5008864;28;20073;-63
2022/03/29 11:25:13;;;;;;;14.25;8.48;;;13.50;61.40;;;;;;5015931;28;20416;-63
2022/03/29 11:27:40;;;;;;;14.20;9.55;;;13.60;61.20;;;;;;5003936;28;20530;-63
2022/03/29 11:30:07;;;;;;;14.60;8.45;;;13.70;60.70;;;;;;5011849;28;20074;-63
2022/03/29 11:32:40;;;;;;;17.05;8.38;;;13.70;60.20;;;;;;5008570;28;20497;-63
2022/03/29 11:35:08;;;;;;;15.07;8.85;;;13.70;59.30;;;;;;5011712;28;20033;-62
2022/03/29 11:37:40;;;;;;;14.80;7.45;;;13.70;58.60;;;;;;5007235;28;20037;-62
2022/03/29 11:40:09;;;;;;;16.50;8.50;;;13.70;59.30;;;;;;5007887;28;20033;-63
2022/03/29 11:42:45;;;;;;;13.43;7.85;;;13.80;58.50;;;;;;5006636;28;20080;-64
2022/03/29 11:45:13;;;;;;;13.25;6.70;;;13.80;58.40;;;;;;5010653;28;20157;-64
2022/03/29 11:47:39;;;;;;;14.23;7.93;;;13.80;57.70;;;;;;5007977;28;20385;-63
2022/03/29 11:50:05;;;;;;;10.27;6.68;;;13.90;56.80;;;;;;5007259;28;20065;-63
2022/03/29 11:52:35;;;;;;;10.05;6.35;;;13.90;56.00;;;;;;5008078;28;20033;-63
2022/03/29 11:55:01;;;;;;;10.43;5.43;;;13.90;55.20;;;;;;5006964;28;20018;-63
2022/03/29 11:57:30;;;;;;;8.63;4.80;;;13.90;54.30;;;;;;5005830;28;20379;-63
2022/03/29 11:59:57;;;;;;;11.65;5.35;;;13.90;54.20;;;;;;5011128;28;20546;-64
2022/03/29 12:02:27;;;;;;;9.98;5.43;;;13.80;53.10;;;;;;5004685;28;20065;-64
2022/03/29 12:04:53;;;;;;;13.48;5.78;;;13.80;53.30;;;;;;5010641;28;20033;-63
2022/03/29 12:07:43;;;;;;;11.77;5.78;;;13.80;53.70;;;;;;5008323;28;20054;-64
2022/03/29 12:10:11;;;;;;;12.13;6.20;;;13.80;52.40;;;;;;5004155;28;20056;-63
2022/03/29 12:12:37;;;;;;;9.20;6.05;;;13.80;53.10;;;;;;5014564;28;20036;-63
2022/03/29 12:15:04;;;;;;;10.90;5.75;;;13.80;53.60;;;;;;5002280;28;20034;-64
2022/03/29 12:17:30;;;;;;;12.15;5.60;;;13.80;53.60;;;;;;4997114;28;20023;-64
2022/03/29 12:19:56;;;;;;;10.55;5.07;;;13.80;52.80;;;;;;5009814;28;20469;-64
2022/03/29 12:22:23;;;;;;;9.05;4.40;;;13.90;53.30;;;;;;5001547;28;20038;-64
2022/03/29 12:24:54;;;;;;;10.13;4.45;;;14.00;52.80;;;;;;5003980;28;20029;-63
2022/03/29 12:27:21;;;;;;;10.48;5.68;;;14.00;52.60;;;;;;5006068;28;20479;-63
2022/03/29 12:29:51;;;;;;;10.82;4.82;;;14.10;52.70;;;;;;5006865;28;20097;-64
2022/03/29 12:32:17;;;;;;;8.82;4.90;;;14.00;52.10;;;;;;5003264;28;20026;-64
2022/03/29 12:34:43;;;;;;;12.00;5.18;;;14.00;52.40;;;;;;5005419;28;20102;-63
2022/03/29 12:37:15;;;;;;;8.05;4.68;;;14.10;52.30;;;;;;5003660;28;20034;-64
2022/03/29 12:39:43;;;;;;;8.52;4.35;;;14.10;51.80;;;;;;5010157;28;20033;-64
2022/03/29 12:42:17;;;;;;;7.55;4.45;;;14.10;51.40;;;;;;5005254;28;20049;-64
2022/03/29 12:44:47;;;;;;;9.32;5.22;;;14.10;51.20;;;;;;5011329;28;20520;-64